This is the latest recevied weather packets stored in our database for station/object K2EJ-13. If no packets are shown the sender has not sent any weather packets the latest 10 day(s).
| Time | Temp. | Humidity | Pressure | Rain* | Wind** | Luminosity | Snow |
|---|---|---|---|---|---|---|---|
| 1777273516 | 6.67° C | 100% | 1022.3 hPa | 0 mm | - | - | - |
| 1777272315 | 6.67° C | 100% | 1022.2 hPa | 0 mm | - | - | - |
| 1777265135 | 7.22° C | 100% | 1022.1 hPa | 0 mm | - | - | - |
| 1777263316 | 7.78° C | 100% | 1021.9 hPa | 0 mm | - | - | - |
| 1777259115 | 8.33° C | 99% | 1021.9 hPa | 0 mm | - | - | - |
| 1777257336 | 8.33° C | 99% | 1021.7 hPa | 0 mm | - | - | - |
| 1777253715 | 10° C | 97% | 1021.2 hPa | 0 mm | - | - | - |
| 1777248936 | 12.22° C | 86% | 1020.4 hPa | 0 mm | - | - | - |
| 1777247115 | 13.33° C | 82% | 1020.2 hPa | 0 mm | - | - | - |
| 1777244716 | 14.44° C | 79% | 1019.6 hPa | 0 mm | - | - | - |
| 1777242316 | 15° C | 73% | 1019.4 hPa | 0 mm | - | - | - |
| 1777241156 | 15° C | 71% | 1019.3 hPa | 0 mm | - | - | - |
| 1777239916 | 15° C | 71% | 1019.2 hPa | 0 mm | - | - | - |
| 1777234515 | 15° C | 68% | 1018.8 hPa | 0 mm | - | - | - |
| 1777229716 | 13.33° C | 73% | 1019.2 hPa | 0 mm | - | - | - |
| 1777228516 | 12.78° C | 76% | 1019.2 hPa | 0 mm | - | - | - |
| 1777227336 | 12.22° C | 77% | 1019.3 hPa | 0 mm | - | - | - |
| 1777221316 | 10.56° C | 84% | 1019.2 hPa | 0 mm | - | - | - |
| 1777219515 | 10.56° C | 84% | 1019.2 hPa | 0 mm | - | - | - |
| 1777215915 | 9.44° C | 89% | 1019.1 hPa | 0 mm | - | - | - |
| 1777208136 | 8.33° C | 94% | 1018 hPa | 0 mm | - | - | - |
| 1777203915 | 7.78° C | 99% | 1017.3 hPa | 0 mm | - | - | - |
| 1777202716 | 7.78° C | 100% | 1017 hPa | 0 mm | - | - | - |
| 1777199115 | 7.78° C | 99% | 1016.3 hPa | 0 mm | - | - | - |
| 1777198515 | 7.78° C | 98% | 1016.1 hPa | 0 mm | - | - | - |
* Rain latest hour (hover to see other rain measurements)
** Current wind speed in m/s (hover to see current wind gust speed)